createdAt,value
2023-05-24T00:01:25.726Z,11.77
2023-05-24T00:03:53.853Z,11.85
2023-05-24T00:06:21.967Z,11.68
2023-05-24T00:08:51.035Z,11.68
2023-05-24T00:11:19.252Z,11.72
2023-05-24T00:13:47.043Z,11.67
2023-05-24T00:16:17.901Z,11.62
2023-05-24T00:18:47.030Z,11.56
2023-05-24T00:21:15.238Z,11.37
2023-05-24T00:23:44.074Z,11.38
2023-05-24T00:26:13.208Z,11.36
2023-05-24T00:28:41.057Z,11.31
2023-05-24T00:31:09.240Z,11.39
2023-05-24T00:33:36.988Z,11.28
2023-05-24T00:36:04.913Z,11.31
2023-05-24T00:38:32.753Z,11.23
2023-05-24T00:41:01.473Z,11.16
2023-05-24T00:43:30.547Z,11.06
2023-05-24T00:46:15.381Z,11.00
2023-05-24T00:48:43.782Z,11.00
2023-05-24T00:51:12.019Z,11.02
2023-05-24T00:53:39.932Z,10.98
2023-05-24T00:56:08.391Z,10.96
2023-05-24T00:58:37.645Z,11.05
2023-05-24T01:01:06.112Z,11.00
2023-05-24T01:03:34.190Z,10.95
2023-05-24T01:06:03.868Z,10.84
2023-05-24T01:08:43.725Z,10.75
2023-05-24T01:11:19.339Z,10.90
2023-05-24T01:13:55.035Z,10.75
2023-05-24T01:16:26.127Z,10.93
2023-05-24T01:18:56.240Z,10.82
2023-05-24T01:21:39.827Z,10.90
2023-05-24T01:24:15.638Z,10.73
2023-05-24T01:26:57.643Z,10.61
2023-05-24T01:29:26.053Z,10.56
2023-05-24T01:31:53.846Z,10.71
2023-05-24T01:34:21.602Z,10.70
2023-05-24T01:36:49.305Z,10.60
2023-05-24T01:39:17.164Z,10.54
2023-05-24T01:41:50.571Z,10.54
2023-05-24T01:44:26.724Z,10.48
2023-05-24T01:47:00.736Z,10.47
2023-05-24T01:49:32.595Z,10.44
2023-05-24T01:52:03.287Z,10.41
2023-05-24T01:54:34.554Z,10.46
2023-05-24T01:57:06.620Z,10.41
2023-05-24T01:59:36.261Z,10.41
2023-05-24T02:02:04.191Z,10.41
2023-05-24T02:04:32.151Z,10.37
2023-05-24T02:06:59.895Z,10.07
2023-05-24T02:09:27.711Z,10.25
2023-05-24T02:11:55.475Z,10.19
2023-05-24T02:14:24.449Z,10.17
2023-05-24T02:16:58.697Z,10.11
2023-05-24T02:19:26.855Z,10.16
2023-05-24T02:21:54.676Z,10.06
2023-05-24T02:24:22.356Z,10.06
2023-05-24T02:26:50.190Z,9.85
2023-05-24T02:29:17.921Z,10.00
2023-05-24T02:31:45.687Z,10.02
2023-05-24T02:34:14.811Z,10.09
2023-05-24T02:36:42.678Z,10.08
2023-05-24T02:39:10.913Z,10.10
2023-05-24T02:41:38.762Z,10.08
2023-05-24T02:44:06.751Z,9.99
2023-05-24T02:46:34.580Z,10.00
2023-05-24T02:49:02.349Z,10.03
2023-05-24T02:51:32.634Z,10.05
2023-05-24T02:54:01.187Z,10.05
2023-05-24T02:56:29.203Z,10.08
2023-05-24T02:58:57.025Z,10.00
2023-05-24T03:01:24.893Z,9.87
2023-05-24T03:03:52.857Z,10.01
2023-05-24T03:06:20.805Z,9.91
2023-05-24T03:08:51.088Z,10.02
2023-05-24T03:11:22.136Z,9.97
2023-05-24T03:13:50.126Z,10.00
2023-05-24T03:16:18.434Z,9.98
2023-05-24T03:18:46.266Z,9.91
2023-05-24T03:21:14.136Z,9.94
2023-05-24T03:23:41.973Z,9.95
2023-05-24T03:26:13.189Z,10.02
2023-05-24T03:28:41.997Z,9.97
2023-05-24T03:31:10.030Z,10.02
2023-05-24T03:33:37.851Z,10.08
2023-05-24T03:36:06.217Z,10.06
2023-05-24T03:38:33.941Z,10.01
2023-05-24T03:41:01.690Z,10.11
2023-05-24T03:43:30.942Z,10.07
2023-05-24T03:45:58.759Z,10.08
2023-05-24T03:48:26.524Z,9.93
2023-05-24T03:50:54.266Z,10.05
2023-05-24T03:53:23.435Z,9.86
2023-05-24T03:55:51.676Z,10.10
2023-05-24T03:58:19.436Z,10.09
2023-05-24T04:00:48.620Z,10.14
2023-05-24T04:03:16.548Z,10.19
2023-05-24T04:05:44.367Z,10.20
2023-05-24T04:08:12.353Z,10.23
2023-05-24T04:10:40.255Z,10.27
2023-05-24T04:13:08.092Z,10.33
2023-05-24T04:15:35.937Z,10.40
2023-05-24T04:18:05.418Z,10.38
2023-05-24T04:20:33.335Z,10.42
2023-05-24T04:23:01.227Z,10.40
2023-05-24T04:25:29.591Z,10.46
2023-05-24T04:27:57.434Z,10.50
2023-05-24T04:30:25.174Z,10.43
2023-05-24T04:32:53.847Z,10.52
2023-05-24T04:35:23.417Z,10.61
2023-05-24T04:37:51.118Z,10.63
2023-05-24T04:40:20.770Z,10.70
2023-05-24T04:42:48.517Z,10.62
2023-05-24T04:45:16.686Z,10.69
2023-05-24T04:47:44.460Z,10.73
2023-05-24T04:50:12.270Z,10.78
2023-05-24T04:52:41.379Z,10.62
2023-05-24T04:55:09.822Z,10.68
2023-05-24T04:57:37.555Z,10.65
2023-05-24T05:00:07.442Z,10.83
2023-05-24T05:02:35.445Z,10.82
2023-05-24T05:05:03.192Z,10.83
2023-05-24T05:07:31.064Z,10.77
2023-05-24T05:10:00.172Z,10.86
2023-05-24T05:12:27.878Z,10.82
2023-05-24T05:14:56.067Z,10.81
2023-05-24T05:17:23.862Z,10.91
2023-05-24T05:19:51.657Z,11.00
2023-05-24T05:22:19.581Z,10.96
2023-05-24T05:24:47.335Z,11.04
2023-05-24T05:27:17.149Z,11.11
2023-05-24T05:29:45.064Z,10.95
2023-05-24T05:32:12.859Z,10.97
2023-05-24T05:34:40.652Z,10.99
2023-05-24T05:37:08.536Z,10.92
2023-05-24T05:39:36.571Z,10.89
2023-05-24T05:42:04.373Z,11.01
2023-05-24T05:44:33.482Z,10.99
2023-05-24T05:47:01.198Z,10.80
2023-05-24T05:49:29.101Z,11.09
2023-05-24T05:51:56.835Z,11.03
2023-05-24T05:54:24.635Z,11.10
2023-05-24T05:56:52.380Z,11.04
2023-05-24T05:59:20.812Z,11.00
2023-05-24T06:01:49.957Z,10.98
2023-05-24T06:04:17.900Z,11.13
2023-05-24T06:06:49.644Z,11.36
2023-05-24T06:09:17.634Z,11.50
2023-05-24T06:11:45.840Z,11.42
2023-05-24T06:14:19.672Z,11.61
2023-05-24T06:16:48.180Z,11.66
2023-05-24T06:19:18.251Z,11.56
2023-05-24T06:21:48.208Z,11.70
2023-05-24T06:24:20.303Z,11.56
2023-05-24T06:26:48.406Z,11.64
2023-05-24T06:29:16.921Z,11.79
2023-05-24T06:31:44.666Z,11.69
2023-05-24T06:34:12.456Z,11.61
2023-05-24T06:36:42.948Z,11.52
2023-05-24T06:39:11.254Z,11.52
2023-05-24T06:41:39.104Z,11.42
2023-05-24T06:44:06.994Z,11.37
2023-05-24T06:46:35.320Z,11.60
2023-05-24T06:49:03.188Z,11.66
2023-05-24T06:51:33.916Z,11.71
2023-05-24T06:54:03.086Z,11.54
2023-05-24T06:56:31.030Z,11.58
2023-05-24T06:58:59.739Z,11.76
2023-05-24T07:01:27.606Z,11.77
2023-05-24T07:03:55.434Z,11.90
2023-05-24T07:06:23.135Z,12.04
2023-05-24T07:08:50.847Z,12.09
2023-05-24T07:11:20.017Z,12.08
2023-05-24T07:13:47.856Z,12.06
2023-05-24T07:16:16.289Z,12.00
2023-05-24T07:18:44.061Z,12.37
2023-05-24T07:21:11.944Z,12.43
2023-05-24T07:23:39.603Z,12.21
2023-05-24T07:26:07.530Z,11.88
2023-05-24T07:28:37.949Z,11.79
2023-05-24T07:31:06.022Z,11.91
2023-05-24T07:33:33.747Z,12.00
2023-05-24T07:36:01.617Z,12.30
2023-05-24T07:38:31.030Z,12.30
2023-05-24T07:41:00.966Z,12.23
2023-05-24T07:43:28.893Z,12.23
2023-05-24T07:45:57.971Z,11.99
2023-05-24T07:48:25.974Z,12.17
2023-05-24T07:50:55.007Z,12.11
2023-05-24T07:53:23.437Z,12.24
2023-05-24T07:55:51.757Z,12.00
2023-05-24T07:58:19.567Z,12.05
2023-05-24T08:00:47.239Z,12.16
2023-05-24T08:03:18.137Z,12.25
2023-05-24T08:05:46.217Z,12.27
2023-05-24T08:08:14.040Z,12.41
2023-05-24T08:10:41.904Z,12.62
2023-05-24T08:13:09.590Z,12.75
2023-05-24T08:15:37.341Z,12.78
2023-05-24T08:18:05.472Z,12.78
2023-05-24T08:20:36.246Z,13.03
2023-05-24T08:23:04.577Z,13.35
2023-05-24T08:25:33.032Z,13.39
2023-05-24T08:28:01.155Z,13.46
2023-05-24T08:30:29.141Z,13.92
2023-05-24T08:32:58.307Z,13.92
2023-05-24T08:35:26.089Z,14.01
2023-05-24T08:37:55.231Z,13.61
2023-05-24T08:40:24.030Z,13.20
2023-05-24T08:42:52.002Z,12.90
2023-05-24T08:45:20.388Z,12.81
2023-05-24T08:47:48.862Z,12.91
2023-05-24T08:50:16.866Z,12.96
2023-05-24T08:52:45.263Z,12.90
2023-05-24T08:55:14.623Z,13.00
2023-05-24T08:57:42.967Z,13.18
2023-05-24T09:00:12.818Z,13.33
2023-05-24T09:02:42.686Z,13.53
2023-05-24T09:05:14.622Z,13.86
2023-05-24T09:07:43.576Z,13.76
2023-05-24T09:10:12.332Z,13.71
2023-05-24T09:12:45.859Z,13.68
2023-05-24T09:15:13.433Z,13.39
2023-05-24T09:17:41.531Z,13.30
2023-05-24T09:20:11.066Z,13.52
2023-05-24T09:22:41.086Z,13.64
2023-05-24T09:25:11.160Z,13.88
2023-05-24T09:27:38.957Z,14.05
2023-05-24T09:30:12.951Z,13.97
2023-05-24T09:32:41.189Z,14.12
2023-05-24T09:35:10.439Z,14.10
2023-05-24T09:37:40.472Z,14.13
2023-05-24T09:40:12.512Z,13.87
2023-05-24T09:42:40.105Z,13.58
2023-05-24T09:45:10.700Z,13.38
2023-05-24T09:47:39.489Z,14.02
2023-05-24T09:50:14.048Z,14.23
2023-05-24T09:52:42.016Z,14.04
2023-05-24T09:55:13.665Z,14.35
2023-05-24T09:57:41.258Z,14.14
2023-05-24T10:00:17.703Z,14.17
2023-05-24T10:02:53.290Z,14.10
2023-05-24T10:05:21.991Z,14.50
2023-05-24T10:07:49.802Z,15.13
2023-05-24T10:10:17.825Z,14.90
2023-05-24T10:12:46.822Z,14.47
2023-05-24T10:15:16.694Z,14.87
2023-05-24T10:17:44.422Z,15.22
2023-05-24T10:20:13.288Z,15.25
2023-05-24T10:22:44.149Z,15.67
2023-05-24T10:25:14.656Z,15.81
2023-05-24T10:27:42.608Z,15.48
2023-05-24T10:30:15.665Z,15.72
2023-05-24T10:32:45.379Z,16.19
2023-05-24T10:35:14.888Z,16.24
2023-05-24T10:37:43.032Z,16.16
2023-05-24T10:40:19.930Z,15.88
2023-05-24T10:42:48.251Z,16.28
2023-05-24T10:45:33.451Z,15.55
2023-05-24T10:48:10.366Z,15.39
2023-05-24T10:50:37.969Z,15.46
2023-05-24T10:53:15.786Z,15.48
2023-05-24T10:55:54.180Z,15.46
2023-05-24T10:58:23.314Z,15.45
2023-05-24T11:00:53.327Z,15.47
2023-05-24T11:03:24.822Z,15.48
2023-05-24T11:05:54.668Z,15.49
2023-05-24T11:08:24.716Z,15.47
2023-05-24T11:10:53.053Z,15.47
2023-05-24T11:13:21.819Z,15.57
2023-05-24T11:15:52.606Z,15.69
2023-05-24T11:18:24.576Z,15.59
2023-05-24T11:20:52.556Z,15.61
2023-05-24T11:23:20.562Z,15.56
2023-05-24T11:25:48.704Z,15.74
2023-05-24T11:28:16.473Z,15.96
2023-05-24T11:30:45.502Z,15.85
2023-05-24T11:33:18.467Z,15.59
2023-05-24T11:35:47.952Z,15.42
2023-05-24T11:38:17.644Z,15.79
2023-05-24T11:40:47.640Z,15.17
2023-05-24T11:43:16.887Z,15.10
2023-05-24T11:45:46.125Z,15.19
2023-05-24T11:48:14.061Z,15.19
2023-05-24T11:50:49.316Z,15.36
2023-05-24T11:53:19.949Z,15.10
2023-05-24T11:55:48.694Z,15.34
2023-05-24T11:58:22.461Z,15.30
2023-05-24T12:00:50.420Z,15.03
2023-05-24T12:03:18.224Z,15.35
2023-05-24T12:05:45.913Z,15.60
2023-05-24T12:08:15.449Z,15.66
2023-05-24T12:10:44.908Z,15.38
2023-05-24T12:13:22.646Z,15.38
2023-05-24T12:15:55.627Z,15.23
2023-05-24T12:18:26.023Z,15.41
2023-05-24T12:20:54.083Z,15.22
2023-05-24T12:23:24.459Z,15.43
2023-05-24T12:25:59.216Z,15.93
2023-05-24T12:28:27.621Z,16.03
2023-05-24T12:30:55.433Z,16.30
2023-05-24T12:33:23.271Z,16.62
2023-05-24T12:35:51.284Z,16.56
2023-05-24T12:38:25.419Z,16.16
2023-05-24T12:41:11.501Z,16.25
2023-05-24T12:43:41.700Z,16.62
2023-05-24T12:46:09.347Z,17.43
2023-05-24T12:48:37.194Z,18.00
2023-05-24T12:51:04.921Z,16.97
2023-05-24T12:53:32.620Z,17.65
2023-05-24T12:56:01.725Z,17.82
2023-05-24T12:58:29.447Z,18.12
2023-05-24T13:00:57.633Z,18.72
2023-05-24T13:03:25.383Z,18.60
2023-05-24T13:05:53.249Z,19.16
2023-05-24T13:08:21.809Z,18.82
2023-05-24T13:10:50.687Z,18.70
2023-05-24T13:13:19.791Z,18.83
2023-05-24T13:15:47.611Z,18.48
2023-05-24T13:18:15.334Z,19.69
2023-05-24T13:20:43.477Z,19.92
2023-05-24T13:23:11.306Z,20.21
2023-05-24T13:25:39.015Z,20.77
2023-05-24T13:28:07.059Z,21.57
2023-05-24T13:30:36.358Z,21.71
2023-05-24T13:33:04.123Z,22.73
2023-05-24T13:35:32.285Z,23.37
2023-05-24T13:38:00.138Z,23.52
2023-05-24T13:40:27.811Z,22.88
2023-05-24T13:42:58.905Z,22.67
2023-05-24T13:45:27.054Z,22.76
2023-05-24T13:48:03.688Z,22.48
2023-05-24T13:50:31.516Z,23.18
2023-05-24T13:52:59.783Z,22.27
2023-05-24T13:55:28.707Z,21.54
2023-05-24T13:57:57.245Z,22.17
2023-05-24T14:00:25.402Z,22.47
2023-05-24T14:02:53.678Z,21.39
2023-05-24T14:07:54.187Z,20.51
2023-05-24T14:10:22.140Z,20.05
2023-05-24T14:13:03.294Z,19.58
2023-05-24T14:15:37.921Z,20.35
2023-05-24T14:18:08.268Z,21.63
2023-05-24T14:20:40.171Z,22.51
2023-05-24T14:23:08.709Z,20.88
2023-05-24T14:25:36.681Z,20.35
2023-05-24T14:28:04.697Z,21.09
2023-05-24T14:30:32.859Z,21.69
2023-05-24T14:33:00.868Z,21.95
2023-05-24T14:35:28.936Z,21.84
2023-05-24T14:37:58.000Z,21.56
2023-05-24T14:40:25.836Z,22.65
2023-05-24T14:42:55.375Z,22.99
2023-05-24T14:45:23.180Z,21.76
2023-05-24T14:47:50.868Z,20.50
2023-05-24T14:50:18.607Z,19.92
2023-05-24T14:52:46.385Z,19.14
2023-05-24T14:55:18.192Z,18.84
2023-05-24T14:57:46.158Z,18.23
2023-05-24T15:00:15.342Z,17.89
2023-05-24T15:02:43.436Z,17.99
2023-05-24T15:05:11.151Z,18.32
2023-05-24T15:07:38.862Z,18.43
2023-05-24T15:10:07.798Z,18.98
2023-05-24T15:12:36.847Z,18.25
2023-05-24T15:15:06.681Z,18.58
2023-05-24T15:17:34.428Z,19.13
2023-05-24T15:20:02.376Z,19.99
2023-05-24T15:22:30.133Z,20.07
2023-05-24T15:24:57.875Z,20.52
2023-05-24T15:27:25.608Z,20.19
2023-05-24T15:29:58.955Z,20.03
2023-05-24T15:32:26.963Z,18.73
2023-05-24T15:34:54.634Z,18.53
2023-05-24T15:37:22.597Z,18.56
2023-05-24T15:39:51.509Z,18.20
2023-05-24T15:42:20.487Z,17.76
2023-05-24T15:44:48.179Z,17.11
2023-05-24T15:47:17.866Z,17.24
2023-05-24T15:49:47.671Z,17.16
2023-05-24T15:52:15.312Z,17.15
2023-05-24T15:54:43.016Z,16.54
2023-05-24T15:57:10.925Z,16.43
2023-05-24T15:59:38.846Z,15.77
2023-05-24T16:02:07.220Z,15.72
2023-05-24T16:04:36.662Z,15.52
2023-05-24T16:07:04.364Z,15.36
2023-05-24T16:09:32.398Z,15.30
2023-05-24T16:12:00.994Z,15.26
2023-05-24T16:14:29.978Z,15.26
2023-05-24T16:17:00.427Z,15.34
2023-05-24T16:19:29.310Z,15.38
2023-05-24T16:21:58.432Z,15.60
2023-05-24T16:24:26.206Z,15.39
2023-05-24T16:26:53.929Z,15.22
2023-05-24T16:29:21.784Z,15.26
2023-05-24T16:31:49.643Z,15.22
2023-05-24T16:34:17.423Z,15.08
2023-05-24T16:36:45.765Z,14.86
2023-05-24T16:39:14.949Z,14.74
2023-05-24T16:41:42.674Z,14.74
2023-05-24T16:44:10.617Z,14.65
2023-05-24T16:46:38.452Z,14.61
2023-05-24T16:49:06.468Z,14.61
2023-05-24T16:51:34.357Z,14.39
2023-05-24T16:54:02.036Z,14.50
2023-05-24T16:56:31.131Z,14.45
2023-05-24T16:58:58.820Z,14.45
2023-05-24T17:01:26.552Z,14.42
2023-05-24T17:03:54.396Z,14.31
2023-05-24T17:06:22.623Z,14.18
2023-05-24T17:08:51.430Z,14.01
2023-05-24T17:11:19.897Z,14.05
2023-05-24T17:13:49.019Z,14.07
2023-05-24T17:16:16.805Z,14.10
2023-05-24T17:18:44.540Z,14.06
2023-05-24T17:21:12.327Z,14.12
2023-05-24T17:23:40.155Z,13.81
2023-05-24T17:26:09.514Z,13.92
2023-05-24T17:28:37.274Z,13.84
2023-05-24T17:31:08.998Z,13.78
2023-05-24T17:33:36.761Z,13.69
2023-05-24T17:36:06.245Z,13.71
2023-05-24T17:38:34.183Z,13.68
2023-05-24T17:41:02.016Z,13.57
2023-05-24T17:43:32.468Z,13.47
2023-05-24T17:46:05.905Z,13.48
2023-05-24T17:48:36.417Z,13.47
2023-05-24T17:51:05.859Z,13.42
2023-05-24T17:53:34.943Z,13.42
2023-05-24T17:56:03.442Z,13.42
2023-05-24T17:58:35.541Z,13.41
2023-05-24T18:01:05.098Z,13.02
2023-05-24T18:03:33.630Z,13.16
2023-05-24T18:06:03.969Z,12.97
2023-05-24T18:08:31.764Z,12.90
2023-05-24T18:10:59.579Z,12.85
2023-05-24T18:13:28.164Z,12.80
2023-05-24T18:15:56.946Z,12.65
2023-05-24T18:18:24.650Z,12.71
2023-05-24T18:20:53.100Z,12.55
2023-05-24T18:23:22.920Z,12.50
2023-05-24T18:25:50.629Z,12.45
2023-05-24T18:28:28.426Z,12.39
2023-05-24T18:30:56.213Z,12.36
2023-05-24T18:33:24.092Z,12.35
2023-05-24T18:35:51.884Z,12.26
2023-05-24T18:38:19.590Z,12.01
2023-05-24T18:40:48.596Z,12.06
2023-05-24T18:43:16.336Z,11.98
2023-05-24T18:45:44.331Z,11.88
2023-05-24T18:48:12.488Z,11.82
2023-05-24T18:50:40.220Z,11.83
2023-05-24T18:53:08.868Z,11.77
2023-05-24T18:55:36.625Z,11.67
2023-05-24T18:58:06.677Z,11.66
2023-05-24T19:00:34.482Z,11.53
2023-05-24T19:03:02.265Z,11.45
2023-05-24T19:05:30.046Z,11.41
2023-05-24T19:07:57.752Z,11.40
2023-05-24T19:10:25.467Z,11.29
2023-05-24T19:12:53.206Z,11.26
2023-05-24T19:15:22.613Z,11.18
2023-05-24T19:17:50.588Z,10.97
2023-05-24T19:20:18.326Z,11.02
2023-05-24T19:22:46.071Z,11.03
2023-05-24T19:25:13.758Z,10.99
2023-05-24T19:27:54.869Z,10.96
2023-05-24T19:30:28.179Z,10.92
2023-05-24T19:32:55.975Z,10.75
2023-05-24T19:35:23.746Z,10.71
2023-05-24T19:37:52.200Z,10.63
2023-05-24T19:40:20.059Z,10.66
2023-05-24T19:42:48.038Z,10.59
2023-05-24T19:45:16.359Z,10.61
2023-05-24T19:47:46.408Z,10.52
2023-05-24T19:50:14.228Z,10.51
2023-05-24T19:52:41.908Z,10.50
2023-05-24T19:55:10.602Z,10.39
2023-05-24T19:57:38.785Z,10.19
2023-05-24T20:00:07.821Z,10.27
2023-05-24T20:02:36.592Z,10.23
2023-05-24T20:05:06.952Z,10.23
2023-05-24T20:07:34.632Z,10.08
2023-05-24T20:10:05.052Z,10.07
2023-05-24T20:12:34.551Z,10.02
2023-05-24T20:15:02.443Z,9.97
2023-05-24T20:17:30.169Z,9.98
2023-05-24T20:19:57.914Z,9.91
2023-05-24T20:22:27.034Z,9.91
2023-05-24T20:24:54.732Z,9.82
2023-05-24T20:27:22.472Z,9.88
2023-05-24T20:29:50.162Z,9.84
2023-05-24T20:32:17.932Z,9.78
2023-05-24T20:34:45.711Z,9.67
2023-05-24T20:37:13.400Z,9.64
2023-05-24T20:39:42.441Z,9.62
2023-05-24T20:42:10.117Z,9.61
2023-05-24T20:44:38.351Z,9.59
2023-05-24T20:47:06.266Z,8.94
2023-05-24T20:49:36.406Z,9.45
2023-05-24T20:52:04.294Z,9.32
2023-05-24T20:54:32.052Z,9.33
2023-05-24T20:57:01.965Z,9.29
2023-05-24T20:59:29.742Z,9.28
2023-05-24T21:01:57.576Z,9.25
2023-05-24T21:04:25.455Z,9.31
2023-05-24T21:06:55.145Z,9.37
2023-05-24T21:09:22.962Z,9.42
2023-05-24T21:11:50.645Z,9.32
2023-05-24T21:14:19.743Z,9.40
2023-05-24T21:16:47.461Z,9.43
2023-05-24T21:19:15.158Z,9.43
2023-05-24T21:21:42.866Z,9.45
2023-05-24T21:24:10.610Z,9.41
2023-05-24T21:26:38.245Z,9.38
2023-05-24T21:29:05.942Z,9.43
2023-05-24T21:31:35.865Z,9.39
2023-05-24T21:34:03.718Z,9.41
2023-05-24T21:36:31.659Z,9.32
2023-05-24T21:38:59.385Z,9.39
2023-05-24T21:41:27.746Z,9.37
2023-05-24T21:43:55.418Z,9.36
2023-05-24T21:46:23.154Z,9.30
2023-05-24T21:48:52.235Z,9.26
2023-05-24T21:51:19.932Z,9.29
2023-05-24T21:53:47.628Z,9.32
2023-05-24T21:56:15.472Z,9.24
2023-05-24T21:58:43.201Z,9.30
2023-05-24T22:01:11.242Z,9.22
2023-05-24T22:03:39.008Z,9.26
2023-05-24T22:06:09.557Z,9.22
2023-05-24T22:08:37.181Z,9.27
2023-05-24T22:11:04.978Z,9.22
2023-05-24T22:13:32.669Z,9.25
2023-05-24T22:16:00.896Z,9.07
2023-05-24T22:18:30.457Z,9.27
2023-05-24T22:20:59.235Z,9.22
2023-05-24T22:23:28.268Z,9.15
2023-05-24T22:25:56.178Z,9.21
2023-05-24T22:28:24.821Z,9.11
2023-05-24T22:30:52.979Z,9.06
2023-05-24T22:33:20.812Z,9.07
2023-05-24T22:35:48.534Z,8.97
2023-05-24T22:38:16.209Z,9.06
2023-05-24T22:40:46.752Z,8.94
2023-05-24T22:43:14.417Z,8.97
2023-05-24T22:45:42.340Z,8.79
2023-05-24T22:48:10.437Z,8.82
2023-05-24T22:50:39.787Z,8.78
2023-05-24T22:53:09.121Z,8.67
2023-05-24T22:55:36.830Z,8.58
2023-05-24T22:58:05.866Z,8.58
2023-05-24T23:00:33.588Z,8.50
2023-05-24T23:03:01.294Z,8.30
2023-05-24T23:05:29.018Z,8.47
2023-05-24T23:07:58.294Z,8.54
2023-05-24T23:10:25.979Z,8.57
2023-05-24T23:12:53.744Z,8.62
2023-05-24T23:15:22.765Z,8.69
2023-05-24T23:17:52.411Z,8.76
2023-05-24T23:20:20.324Z,8.86
2023-05-24T23:22:48.397Z,8.90
2023-05-24T23:25:16.082Z,8.92
2023-05-24T23:27:43.787Z,9.01
2023-05-24T23:30:11.945Z,9.10
2023-05-24T23:32:41.063Z,9.12
2023-05-24T23:35:09.537Z,9.20
2023-05-24T23:37:37.228Z,9.22
2023-05-24T23:40:06.660Z,9.27
2023-05-24T23:42:34.412Z,9.30
2023-05-24T23:45:02.269Z,9.29
2023-05-24T23:47:29.955Z,9.31
2023-05-24T23:49:59.098Z,9.30
2023-05-24T23:52:27.062Z,9.29
2023-05-24T23:54:54.819Z,9.28
2023-05-24T23:57:24.940Z,9.25
2023-05-24T23:59:52.680Z,9.26
